createdAt,value
2019-06-01T00:02:01.259Z,0
2019-06-01T00:04:11.116Z,0
2019-06-01T00:05:51.484Z,0
2019-06-01T00:10:41.481Z,0
2019-06-01T00:12:20.420Z,0
2019-06-01T00:15:01.001Z,0
2019-06-01T00:17:43.694Z,0
2019-06-01T00:18:50.813Z,0
2019-06-01T00:21:31.068Z,0
2019-06-01T00:23:40.753Z,0
2019-06-01T00:25:50.542Z,0
2019-06-01T00:28:31.072Z,0
2019-06-01T00:31:11.616Z,0
2019-06-01T00:32:51.764Z,0
2019-06-01T00:37:41.808Z,0
2019-06-01T00:39:20.351Z,0
2019-06-01T00:42:01.672Z,0
2019-06-01T00:45:51.159Z,0
2019-06-01T00:48:31.722Z,0
2019-06-01T00:52:51.834Z,0
2019-06-01T00:57:40.586Z,0
2019-06-01T00:59:55.057Z,0
2019-06-01T01:00:47.349Z,0
2019-06-01T01:01:22.587Z,0
2019-06-01T01:05:40.385Z,0
2019-06-01T01:07:55.557Z,0
2019-06-01T01:09:31.617Z,0
2019-06-01T01:13:51.695Z,0
2019-06-01T01:16:00.849Z,0
2019-06-01T01:18:41.401Z,0
2019-06-01T01:22:30.981Z,0
2019-06-01T01:25:11.594Z,0
2019-06-01T01:27:20.987Z,0
2019-06-01T01:29:31.257Z,0
2019-06-01T01:31:15.329Z,0
2019-06-01T01:32:21.653Z,0
2019-06-01T01:34:00.584Z,0
2019-06-01T01:36:41.825Z,0
2019-06-01T01:38:54.714Z,0
2019-06-01T01:42:40.320Z,0
2019-06-01T01:44:50.875Z,0
2019-06-01T01:47:01.568Z,0
2019-06-01T01:51:53.208Z,0
2019-06-01T01:53:31.895Z,0
2019-06-01T01:57:51.608Z,0
2019-06-01T02:00:03.027Z,0
2019-06-01T02:01:24.186Z,0
2019-06-01T02:03:03.074Z,0
2019-06-01T02:05:11.506Z,0
2019-06-01T02:09:31.636Z,0
2019-06-01T02:14:20.566Z,0
2019-06-01T02:16:03.038Z,0
2019-06-01T02:18:11.478Z,0
2019-06-01T02:22:01.031Z,0
2019-06-01T02:24:41.607Z,0
2019-06-01T02:29:04.465Z,0
2019-06-01T02:30:40.824Z,0
2019-06-01T02:33:21.388Z,0
2019-06-01T02:35:05.387Z,0
2019-06-01T02:36:41.764Z,0
2019-06-01T02:40:30.942Z,0
2019-06-01T02:42:10.843Z,4
2019-06-01T02:44:11.855Z,4
2019-06-01T02:44:43.906Z,4
2019-06-01T02:50:11.683Z,8
2019-06-01T02:56:11.156Z,12
2019-06-01T02:58:51.703Z,16
2019-06-01T03:01:04.855Z,20
2019-06-01T03:02:15.906Z,24
2019-06-01T03:03:51.579Z,28
2019-06-01T03:06:01.766Z,32
2019-06-01T03:07:41.705Z,40
2019-06-01T03:09:50.286Z,48
2019-06-01T03:12:04.663Z,60
2019-06-01T03:13:41.701Z,72
2019-06-01T03:19:40.399Z,108
2019-06-01T03:22:21.595Z,124
2019-06-01T03:28:50.445Z,188
2019-06-01T03:31:30.949Z,212
2019-06-01T03:32:38.264Z,224
2019-06-01T03:33:14.085Z,232
2019-06-01T03:34:50.702Z,252
2019-06-01T03:37:30.996Z,284
2019-06-01T03:39:41.716Z,316
2019-06-01T03:40:25.026Z,324
2019-06-01T03:42:03.693Z,348
2019-06-01T03:43:41.872Z,372
2019-06-01T03:45:50.624Z,400
2019-06-01T03:48:31.277Z,436
2019-06-01T03:50:10.453Z,452
2019-06-01T03:52:50.945Z,480
2019-06-01T03:55:31.449Z,512
2019-06-01T03:57:11.620Z,544
2019-06-01T04:02:02.887Z,612
2019-06-01T04:03:41.725Z,632
2019-06-01T04:08:30.730Z,680
2019-06-01T04:10:12.247Z,696
2019-06-01T04:12:20.643Z,724
2019-06-01T04:15:08.312Z,756
2019-06-01T04:15:41.801Z,764
2019-06-01T04:17:50.307Z,776
2019-06-01T04:20:30.893Z,764
2019-06-01T04:22:12.622Z,776
2019-06-01T04:24:21.001Z,792
2019-06-01T04:27:04.029Z,820
2019-06-01T04:28:10.662Z,848
2019-06-01T04:30:51.195Z,908
2019-06-01T04:33:31.676Z,1020
2019-06-01T04:35:11.539Z,1092
2019-06-01T04:40:00.565Z,1240
2019-06-01T04:42:12.251Z,1312
2019-06-01T04:44:20.643Z,1404
2019-06-01T04:47:01.158Z,1568
2019-06-01T04:49:14.964Z,1840
2019-06-01T04:50:51.505Z,1944
2019-06-01T04:53:24.531Z,1996
2019-06-01T04:53:56.525Z,1980
2019-06-01T04:55:00.688Z,2040
2019-06-01T04:57:13.435Z,1968
2019-06-01T04:59:21.806Z,1316
2019-06-01T05:01:01.387Z,1488
2019-06-01T05:02:41.802Z,1588
2019-06-01T05:04:20.333Z,1460
2019-06-01T05:07:00.807Z,1740
2019-06-01T05:09:13.773Z,1472
2019-06-01T05:13:31.264Z,1568
2019-06-01T05:15:10.263Z,1564
2019-06-01T05:17:21.693Z,1488
2019-06-01T05:21:40.958Z,1316
2019-06-01T05:23:51.400Z,2032
2019-06-01T05:28:41.628Z,2612
2019-06-01T05:30:20.383Z,3092
2019-06-01T05:32:30.806Z,3088
2019-06-01T05:34:12.256Z,3244
2019-06-01T05:35:50.512Z,3252
2019-06-01T05:38:31.013Z,3248
2019-06-01T05:40:40.935Z,2720
2019-06-01T05:42:21.331Z,2892
2019-06-01T05:47:12.545Z,3348
2019-06-01T05:48:31.247Z,3320
2019-06-01T05:51:20.574Z,3436
2019-06-01T05:54:01.073Z,3264
2019-06-01T05:56:10.948Z,2808
2019-06-01T05:58:22.932Z,2980
2019-06-01T06:00:31.352Z,3300
2019-06-01T06:03:40.514Z,3432
2019-06-01T06:04:13.828Z,3412
2019-06-01T06:08:01.262Z,3472
2019-06-01T06:10:41.728Z,3652
2019-06-01T06:12:22.037Z,3660
2019-06-01T06:14:30.514Z,3668
2019-06-01T06:17:22.006Z,3732
2019-06-01T06:19:00.355Z,3780
2019-06-01T06:21:41.001Z,3848
2019-06-01T06:23:20.910Z,3832
2019-06-01T06:25:39.584Z,3864
2019-06-01T06:26:50.884Z,3908
2019-06-01T06:29:00.405Z,3960
2019-06-01T06:31:41.044Z,4028
2019-06-01T06:33:58.078Z,4120
2019-06-01T06:37:10.753Z,4164
2019-06-01T06:38:50.333Z,4228
2019-06-01T06:41:00.963Z,4328
2019-06-01T06:43:33.692Z,4332
2019-06-01T06:44:05.699Z,4372
2019-06-01T06:45:41.724Z,4364
2019-06-01T06:47:21.324Z,4280
2019-06-01T06:49:30.854Z,4272
2019-06-01T06:52:11.542Z,4308
2019-06-01T06:53:36.114Z,4428
2019-06-01T06:56:50.447Z,4572
2019-06-01T06:59:01.045Z,4636
2019-06-01T07:01:13.388Z,4664
2019-06-01T07:02:51.276Z,4628
2019-06-01T07:04:14.097Z,4484
2019-06-01T07:05:51.835Z,4584
2019-06-01T07:07:30.389Z,4844
2019-06-01T07:10:10.997Z,4400
2019-06-01T07:12:21.608Z,4428
2019-06-01T07:14:32.044Z,4536
2019-06-01T07:16:40.582Z,4616
2019-06-01T07:18:24.061Z,4668
2019-06-01T07:20:01.377Z,4644
2019-06-01T07:24:50.563Z,4856
2019-06-01T07:27:00.734Z,4868
2019-06-01T07:30:51.825Z,4880
2019-06-01T07:34:43.895Z,5208
2019-06-01T07:36:22.633Z,5120
2019-06-01T07:38:01.022Z,5092
2019-06-01T07:40:15.230Z,5152
2019-06-01T07:41:51.596Z,4664
2019-06-01T07:45:11.046Z,4784
2019-06-01T07:47:51.696Z,4796
2019-06-01T07:49:31.576Z,4584
2019-06-01T07:53:51.042Z,4660
2019-06-01T07:55:32.555Z,4820
2019-06-01T07:57:45.283Z,4892
2019-06-01T07:59:28.001Z,4888
2019-06-01T08:00:00.339Z,4908
2019-06-01T08:02:10.388Z,5140
2019-06-01T08:04:55.806Z,4936
2019-06-01T08:05:30.560Z,4964
2019-06-01T08:08:11.184Z,4988
2019-06-01T08:10:51.686Z,4772
2019-06-01T08:11:35.482Z,4876
2019-06-01T08:13:11.757Z,4932
2019-06-01T08:17:00.480Z,4768
2019-06-01T08:21:50.841Z,4704
2019-06-01T08:23:32.149Z,4644
2019-06-01T08:25:41.064Z,4600
2019-06-01T08:28:22.815Z,4324
2019-06-01T08:30:01.337Z,4652
2019-06-01T08:32:10.293Z,4736
2019-06-01T08:35:09.932Z,4916
2019-06-01T08:35:41.934Z,4448
2019-06-01T08:37:50.343Z,4784
2019-06-01T08:42:11.566Z,4508
2019-06-01T08:46:32.094Z,4608
2019-06-01T08:48:40.591Z,4604
2019-06-01T08:51:21.161Z,4872
2019-06-01T08:53:32.591Z,4436
2019-06-01T08:56:05.293Z,4348
2019-06-01T08:56:37.309Z,3976
2019-06-01T08:57:41.482Z,4052
2019-06-01T09:02:01.105Z,4372
2019-06-01T09:03:47.932Z,4756
2019-06-01T09:05:31.647Z,5084
2019-06-01T09:07:40.923Z,5072
2019-06-01T09:10:21.582Z,5008
2019-06-01T09:12:33.741Z,5092
2019-06-01T09:16:50.757Z,4896
2019-06-01T09:20:40.867Z,5380
2019-06-01T09:23:21.792Z,5792
2019-06-01T09:25:00.615Z,5548
2019-06-01T09:27:10.609Z,5216
2019-06-01T09:29:51.114Z,4908
2019-06-01T09:31:32.248Z,4704
2019-06-01T09:35:57.487Z,3660
2019-06-01T09:36:30.768Z,3608
2019-06-01T09:38:41.813Z,3684
2019-06-01T09:40:50.726Z,3704
2019-06-01T09:43:01.708Z,3680
2019-06-01T09:45:11.898Z,4128
2019-06-01T09:47:20.374Z,4172
2019-06-01T09:51:10.659Z,4272
2019-06-01T09:53:51.284Z,3956
2019-06-01T09:55:34.455Z,3736
2019-06-01T09:56:41.007Z,3876
2019-06-01T09:59:21.596Z,3992
2019-06-01T10:01:32.770Z,3992
2019-06-01T10:03:10.832Z,3988
2019-06-01T10:06:03.467Z,3976
2019-06-01T10:07:42.859Z,3776
2019-06-01T10:09:51.279Z,3912
2019-06-01T10:12:34.285Z,3948
2019-06-01T10:13:42.585Z,3896
2019-06-01T10:15:51.160Z,3956
2019-06-01T10:18:35.299Z,3948
2019-06-01T10:22:20.748Z,4052
2019-06-01T10:25:01.322Z,4076
2019-06-01T10:26:42.196Z,4008
2019-06-01T10:28:50.591Z,4164
2019-06-01T10:31:33.027Z,4288
2019-06-01T10:32:40.298Z,4284
2019-06-01T10:35:20.962Z,4172
2019-06-01T10:38:01.520Z,4296
2019-06-01T10:39:41.791Z,4364
2019-06-01T10:41:50.262Z,4320
2019-06-01T10:44:42.159Z,4292
2019-06-01T10:46:21.806Z,4484
2019-06-01T10:50:10.526Z,4644
2019-06-01T10:52:20.249Z,4572
2019-06-01T10:55:00.745Z,4532
2019-06-01T10:56:40.985Z,4548
2019-06-01T10:59:01.616Z,4540
2019-06-01T11:00:52.371Z,4788
2019-06-01T11:03:00.733Z,4756
2019-06-01T11:04:43.213Z,4896
2019-06-01T11:06:48.524Z,5092
2019-06-01T11:07:20.868Z,5176
2019-06-01T11:10:01.339Z,4964
2019-06-01T11:11:41.637Z,5104
2019-06-01T11:16:30.632Z,5476
2019-06-01T11:18:44.446Z,5460
2019-06-01T11:20:20.944Z,5400
2019-06-01T11:23:01.497Z,5368
2019-06-01T11:24:41.928Z,5708
2019-06-01T11:26:50.451Z,5812
2019-06-01T11:29:31.053Z,5884
2019-06-01T11:31:44.193Z,5740
2019-06-01T11:33:20.610Z,5088
2019-06-01T11:36:01.183Z,5476
2019-06-01T11:37:42.321Z,5964
2019-06-01T11:39:50.970Z,6112
2019-06-01T11:42:31.623Z,5852
2019-06-01T11:44:43.222Z,5792
2019-06-01T11:46:52.019Z,6100
2019-06-01T11:49:00.530Z,6352
2019-06-01T11:51:11.448Z,6484
2019-06-01T11:55:30.521Z,6604
2019-06-01T11:57:43.442Z,6868
2019-06-01T11:59:22.618Z,6936
2019-06-01T12:01:31.040Z,6988
2019-06-01T12:05:20.672Z,7540
2019-06-01T12:08:01.216Z,7576
2019-06-01T12:09:42.244Z,7536
2019-06-01T12:11:20.335Z,7236
2019-06-01T12:14:01.059Z,8076
2019-06-01T12:16:11.284Z,8456
2019-06-01T12:18:21.686Z,8540
2019-06-01T12:22:41.202Z,8864
2019-06-01T12:24:26.785Z,8472
2019-06-01T12:25:30.961Z,8788
2019-06-01T12:27:41.988Z,9228
2019-06-01T12:29:20.795Z,9140
2019-06-01T12:31:30.271Z,9520
2019-06-01T12:33:41.902Z,9800
2019-06-01T12:35:21.173Z,10176
2019-06-01T12:38:07.637Z,10252
2019-06-01T12:38:40.582Z,10424
2019-06-01T12:39:13.598Z,10436
2019-06-01T12:39:54.211Z,10588
2019-06-01T12:41:30.731Z,10464
2019-06-01T12:43:41.879Z,10368
2019-06-01T12:45:24.381Z,11400
2019-06-01T12:46:08.810Z,11616
2019-06-01T12:46:43.684Z,11536
2019-06-01T12:47:59.237Z,12112
2019-06-01T12:48:31.290Z,12368
2019-06-01T12:50:43.448Z,12516
2019-06-01T12:51:50.357Z,13004
2019-06-01T12:54:30.901Z,13844
2019-06-01T12:57:11.578Z,12584
2019-06-01T12:59:21.763Z,14436
2019-06-01T13:01:03.980Z,14924
2019-06-01T13:02:56.133Z,16064
2019-06-01T13:03:39.143Z,16092
2019-06-01T13:04:11.186Z,16488
2019-06-01T13:05:52.342Z,17248
2019-06-01T13:08:04.114Z,18252
2019-06-01T13:09:41.630Z,19200
2019-06-01T13:11:52.719Z,20032
2019-06-01T13:14:05.406Z,21312
2019-06-01T13:15:43.682Z,20384
2019-06-01T13:17:08.454Z,22144
2019-06-01T13:17:41.441Z,22016
2019-06-01T13:19:52.816Z,22304
2019-06-01T13:22:01.348Z,25024
2019-06-01T13:24:45.725Z,25952
2019-06-01T13:25:52.272Z,26176
2019-06-01T13:28:00.669Z,27840
2019-06-01T13:29:11.611Z,26368
2019-06-01T13:30:53.789Z,23264
2019-06-01T13:35:10.682Z,28608
2019-06-01T13:36:52.928Z,28160
2019-06-01T13:38:13.512Z,28256
2019-06-01T13:39:59.242Z,29216
2019-06-01T13:40:31.306Z,28704
2019-06-01T13:44:52.078Z,29088
2019-06-01T13:47:00.532Z,28128
2019-06-01T13:49:41.044Z,31104
2019-06-01T13:51:53.010Z,30176
2019-06-01T13:54:01.409Z,27872
2019-06-01T13:58:20.835Z,29856
2019-06-01T14:00:32.204Z,31456
2019-06-01T14:02:40.639Z,14420
2019-06-01T14:04:54.605Z,24832
2019-06-01T14:06:02.258Z,26112
2019-06-01T14:08:29.413Z,26720
2019-06-01T14:09:01.471Z,27264
2019-06-01T14:15:30.922Z,24704
2019-06-01T14:18:11.579Z,23488
2019-06-01T14:22:00.852Z,23264
2019-06-01T14:25:14.853Z,22272
2019-06-01T14:25:48.389Z,23456
2019-06-01T14:26:21.794Z,24000
2019-06-01T14:28:00.555Z,23616
2019-06-01T14:30:41.057Z,22144
2019-06-01T14:32:52.737Z,20352
2019-06-01T14:36:41.335Z,16308
2019-06-01T14:38:59.263Z,15616
2019-06-01T14:39:31.328Z,18752
2019-06-01T14:42:11.839Z,20960
2019-06-01T14:44:21.577Z,19808
2019-06-01T14:46:00.639Z,19904
2019-06-01T14:48:12.138Z,20448
2019-06-01T14:51:30.516Z,21536
2019-06-01T14:53:40.860Z,31392
2019-06-01T14:55:51.621Z,39584
2019-06-01T14:57:30.468Z,47264
2019-06-01T15:00:11.118Z,50656
2019-06-01T15:01:34.005Z,54880
2019-06-01T15:03:10.297Z,55872
2019-06-01T15:05:52.701Z,51392
2019-06-01T15:07:31.224Z,51104
2019-06-01T15:09:20.996Z,48672
2019-06-01T15:13:40.707Z,44704
2019-06-01T15:15:51.777Z,52096
2019-06-01T15:17:30.999Z,46272
2019-06-01T15:19:10.867Z,40928
2019-06-01T15:21:54.025Z,38112
2019-06-01T15:23:31.748Z,34272
2019-06-01T15:25:40.559Z,34016
2019-06-01T15:28:21.348Z,30848
2019-06-01T15:30:00.269Z,33024
2019-06-01T15:32:41.204Z,9664
2019-06-01T15:34:52.308Z,7476
2019-06-01T15:36:30.586Z,6696
2019-06-01T15:39:26.484Z,5296
2019-06-01T15:40:31.810Z,5048
2019-06-01T15:42:40.423Z,4596
2019-06-01T15:45:21.305Z,4236
2019-06-01T15:47:02.412Z,4116
2019-06-01T15:49:10.780Z,3996
2019-06-01T15:51:53.639Z,3900
2019-06-01T15:53:31.862Z,3832
2019-06-01T15:55:40.808Z,3732
2019-06-01T15:58:21.496Z,3584
2019-06-01T15:59:01.323Z,3556
2019-06-01T16:01:10.265Z,3488
2019-06-01T16:03:51.278Z,3388
2019-06-01T16:06:03.860Z,3304
2019-06-01T16:07:40.286Z,3172
2019-06-01T16:10:21.202Z,2912
2019-06-01T16:12:02.099Z,3008
2019-06-01T16:14:10.734Z,3052
2019-06-01T16:16:51.455Z,3080
2019-06-01T16:18:30.551Z,3112
2019-06-01T16:19:41.235Z,3132
2019-06-01T16:22:21.836Z,2960
2019-06-01T16:24:02.790Z,2956
2019-06-01T16:26:17.599Z,2872
2019-06-01T16:27:21.743Z,2788
2019-06-01T16:29:00.928Z,2764
2019-06-01T16:31:11.208Z,2704
2019-06-01T16:33:51.847Z,2532
2019-06-01T16:36:04.276Z,2400
2019-06-01T16:37:41.736Z,2432
2019-06-01T16:40:11.036Z,2344
2019-06-01T16:40:43.065Z,2380
2019-06-01T16:42:51.668Z,2580
2019-06-01T16:46:40.357Z,2824
2019-06-01T16:49:20.899Z,2676
2019-06-01T16:51:30.542Z,2556
2019-06-01T16:55:50.388Z,2708
2019-06-01T17:00:11.204Z,2664
2019-06-01T17:04:31.102Z,2608
2019-06-01T17:08:50.585Z,2444
2019-06-01T17:11:01.459Z,2360
2019-06-01T17:12:44.792Z,2272
2019-06-01T17:14:21.162Z,2200
2019-06-01T17:16:31.552Z,2196
2019-06-01T17:18:11.791Z,2172
2019-06-01T17:20:20.253Z,1936
2019-06-01T17:23:32.845Z,1668
2019-06-01T17:24:06.014Z,1628
2019-06-01T17:25:10.302Z,1572
2019-06-01T17:27:50.846Z,1512
2019-06-01T17:30:06.738Z,1460
2019-06-01T17:30:41.396Z,1428
2019-06-01T17:32:24.978Z,1316
2019-06-01T17:32:58.115Z,1284
2019-06-01T17:35:10.342Z,1196
2019-06-01T17:37:51.314Z,1144
2019-06-01T17:40:03.048Z,1132
2019-06-01T17:40:44.197Z,1160
2019-06-01T17:42:20.490Z,1192
2019-06-01T17:45:05.985Z,1264
2019-06-01T17:46:12.482Z,1280
2019-06-01T17:46:55.160Z,1292
2019-06-01T17:48:27.887Z,1356
2019-06-01T17:49:02.374Z,1384
2019-06-01T17:55:03.088Z,1220
2019-06-01T17:56:40.738Z,1184
2019-06-01T17:59:21.359Z,1168
2019-06-01T18:03:12.033Z,1144
2019-06-01T18:05:20.680Z,1116
2019-06-01T18:08:03.735Z,996
2019-06-01T18:09:10.652Z,960
2019-06-01T18:10:56.184Z,916
2019-06-01T18:12:00.436Z,896
2019-06-01T18:14:12.769Z,848
2019-06-01T18:15:51.529Z,872
2019-06-01T18:20:13.729Z,920
2019-06-01T18:24:30.586Z,904
2019-06-01T18:26:11.438Z,888
2019-06-01T18:28:21.517Z,864
2019-06-01T18:34:51.614Z,732
2019-06-01T18:39:12.232Z,620
2019-06-01T18:40:21.464Z,592
2019-06-01T18:41:20.563Z,572
2019-06-01T18:41:52.550Z,560
2019-06-01T18:44:00.978Z,512
2019-06-01T18:46:12.641Z,476
2019-06-01T18:47:33.694Z,456
2019-06-01T18:49:12.383Z,432
2019-06-01T18:50:50.832Z,404
2019-06-01T18:53:31.385Z,364
2019-06-01T18:55:14.546Z,340
2019-06-01T18:56:50.922Z,316
2019-06-01T18:59:31.541Z,280
2019-06-01T19:00:41.192Z,268
2019-06-01T19:02:51.666Z,244
2019-06-01T19:05:00.351Z,224
2019-06-01T19:07:11.641Z,204
2019-06-01T19:09:21.593Z,184
2019-06-01T19:11:37.238Z,168
2019-06-01T19:14:20.564Z,152
2019-06-01T19:17:40.817Z,128
2019-06-01T19:19:21.161Z,120
2019-06-01T19:22:01.636Z,100
2019-06-01T19:24:12.990Z,88
2019-06-01T19:25:50.329Z,84
2019-06-01T19:28:31.663Z,68
2019-06-01T19:30:41.440Z,60
2019-06-01T19:32:22.533Z,56
2019-06-01T19:34:30.960Z,52
2019-06-01T19:36:41.408Z,40
2019-06-01T19:41:00.666Z,28
2019-06-01T19:41:46.355Z,32
2019-06-01T19:42:50.862Z,28
2019-06-01T19:44:19.663Z,24
2019-06-01T19:44:51.658Z,24
2019-06-01T19:45:30.611Z,20
2019-06-01T19:47:40.247Z,16
2019-06-01T19:49:21.180Z,16
2019-06-01T19:52:01.739Z,16
2019-06-01T19:54:12.753Z,8
2019-06-01T19:58:00.784Z,4
2019-06-01T20:00:10.498Z,4
2019-06-01T20:02:35.060Z,4
2019-06-01T20:04:12.846Z,4
2019-06-01T20:05:51.312Z,4
2019-06-01T20:08:00.910Z,0
2019-06-01T20:10:10.628Z,0
2019-06-01T20:12:16.384Z,0
2019-06-01T20:12:51.702Z,0
2019-06-01T20:17:40.581Z,0
2019-06-01T20:19:21.552Z,0
2019-06-01T20:24:12.872Z,0
2019-06-01T20:26:50.097Z,0
2019-06-01T20:27:22.903Z,0
2019-06-01T20:29:31.236Z,0
2019-06-01T20:32:14.197Z,0
2019-06-01T20:33:23.008Z,0
2019-06-01T20:35:01.900Z,0
2019-06-01T20:37:10.318Z,0
2019-06-01T20:38:51.008Z,0
2019-06-01T20:42:33.538Z,0
2019-06-01T20:43:05.537Z,0
2019-06-01T20:44:41.794Z,0
2019-06-01T20:46:21.369Z,0
2019-06-01T20:49:01.852Z,0
2019-06-01T20:53:23.700Z,0
2019-06-01T20:57:40.511Z,0
2019-06-01T20:59:25.072Z,0
2019-06-01T21:00:33.111Z,0
2019-06-01T21:02:41.509Z,0
2019-06-01T21:04:24.095Z,0
2019-06-01T21:06:00.558Z,0
2019-06-01T21:08:41.099Z,0
2019-06-01T21:10:22.704Z,0
2019-06-01T21:12:46.995Z,0
2019-06-01T21:13:20.648Z,0
2019-06-01T21:16:01.206Z,0
2019-06-01T21:18:41.704Z,0
2019-06-01T21:20:30.653Z,0
2019-06-01T21:23:11.118Z,0
2019-06-01T21:25:24.975Z,0
2019-06-01T21:27:01.861Z,0
2019-06-01T21:30:51.052Z,0
2019-06-01T21:35:10.506Z,0
2019-06-01T21:37:21.962Z,0
2019-06-01T21:39:31.270Z,0
2019-06-01T21:42:11.775Z,0
2019-06-01T21:43:35.327Z,0
2019-06-01T21:44:07.496Z,0
2019-06-01T21:44:39.490Z,0
2019-06-01T21:46:17.952Z,0
2019-06-01T21:47:56.340Z,0
2019-06-01T21:50:36.834Z,0
2019-06-01T21:53:19.811Z,0
2019-06-01T21:54:26.813Z,0
2019-06-01T21:57:07.308Z,0
2019-06-01T21:59:18.443Z,0
2019-06-01T22:00:57.153Z,0
2019-06-01T22:03:37.683Z,0
2019-06-01T22:07:57.811Z,0
2019-06-01T22:12:46.708Z,0
2019-06-01T22:13:28.884Z,0
2019-06-01T22:15:37.376Z,0
2019-06-01T22:18:19.998Z,0
2019-06-01T22:19:26.348Z,0
2019-06-01T22:22:06.848Z,0
2019-06-01T22:24:20.109Z,0
2019-06-01T22:25:26.336Z,0
2019-06-01T22:28:06.829Z,0
2019-06-01T22:30:47.315Z,0
2019-06-01T22:32:32.362Z,0
2019-06-01T22:33:36.545Z,0
2019-06-01T22:36:17.012Z,0
2019-06-01T22:38:28.274Z,0
2019-06-01T22:42:46.541Z,0
2019-06-01T22:43:47.712Z,0
2019-06-01T22:44:26.134Z,0
2019-06-01T22:47:07.221Z,0
2019-06-01T22:49:16.404Z,0
2019-06-01T22:55:46.725Z,0
2019-06-01T22:57:56.985Z,0
2019-06-01T23:00:06.738Z,0
2019-06-01T23:02:47.219Z,0
2019-06-01T23:04:57.519Z,0
2019-06-01T23:09:17.407Z,0
2019-06-01T23:10:35.971Z,0
2019-06-01T23:13:16.454Z,0
2019-06-01T23:14:29.363Z,0
2019-06-01T23:16:37.886Z,0
2019-06-01T23:20:56.325Z,0
2019-06-01T23:23:06.651Z,0
2019-06-01T23:25:47.248Z,0
2019-06-01T23:27:56.938Z,0
2019-06-01T23:30:07.592Z,0
2019-06-01T23:34:28.669Z,0
2019-06-01T23:38:46.506Z,0
2019-06-01T23:40:56.932Z,0
2019-06-01T23:43:07.567Z,0
2019-06-01T23:47:31.267Z,0
2019-06-01T23:49:07.686Z,0
2019-06-01T23:53:57.889Z,0
2019-06-01T23:55:37.076Z,0
2019-06-01T23:58:17.571Z,0
